sensor_id;sensor_type;location;lat;lon;timestamp;pressure;altitude;pressure_sealevel;temperature;humidity
59588;BME280;45412;54.472;18.464;2022-10-22T00:02:21;99441.61;;;7.21;94.64
59588;BME280;45412;54.472;18.464;2022-10-22T00:05:09;99438.80;;;7.18;94.92
59588;BME280;45412;54.472;18.464;2022-10-22T00:07:55;99438.27;;;7.15;95.21
59588;BME280;45412;54.472;18.464;2022-10-22T00:10:42;99436.58;;;7.14;95.04
59588;BME280;45412;54.472;18.464;2022-10-22T00:13:28;99441.16;;;7.14;95.34
59588;BME280;45412;54.472;18.464;2022-10-22T00:16:14;99439.18;;;7.15;95.20
59588;BME280;45412;54.472;18.464;2022-10-22T00:19:01;99435.89;;;7.16;95.01
59588;BME280;45412;54.472;18.464;2022-10-22T00:21:48;99435.86;;;7.17;94.72
59588;BME280;45412;54.472;18.464;2022-10-22T00:24:36;99437.44;;;7.17;94.98
59588;BME280;45412;54.472;18.464;2022-10-22T00:27:23;99436.20;;;7.15;95.14
59588;BME280;45412;54.472;18.464;2022-10-22T00:30:10;99431.91;;;7.13;95.33
59588;BME280;45412;54.472;18.464;2022-10-22T00:32:57;99434.75;;;7.13;95.48
59588;BME280;45412;54.472;18.464;2022-10-22T00:35:43;99431.03;;;7.13;95.71
59588;BME280;45412;54.472;18.464;2022-10-22T00:38:30;99427.19;;;7.15;95.78
59588;BME280;45412;54.472;18.464;2022-10-22T00:41:17;99420.56;;;7.16;95.99
59588;BME280;45412;54.472;18.464;2022-10-22T00:44:05;99421.38;;;7.20;95.77
59588;BME280;45412;54.472;18.464;2022-10-22T00:46:52;99420.19;;;7.24;95.44
59588;BME280;45412;54.472;18.464;2022-10-22T00:49:38;99417.31;;;7.27;95.37
59588;BME280;45412;54.472;18.464;2022-10-22T00:52:28;99411.93;;;7.28;95.42
59588;BME280;45412;54.472;18.464;2022-10-22T00:55:15;99404.00;;;7.30;95.27
59588;BME280;45412;54.472;18.464;2022-10-22T00:58:02;99403.36;;;7.34;95.31
59588;BME280;45412;54.472;18.464;2022-10-22T01:00:48;99399.77;;;7.38;94.84
59588;BME280;45412;54.472;18.464;2022-10-22T01:03:35;99398.80;;;7.41;94.95
59588;BME280;45412;54.472;18.464;2022-10-22T01:06:32;99399.02;;;7.47;95.00
59588;BME280;45412;54.472;18.464;2022-10-22T01:09:41;99393.70;;;7.53;94.81
59588;BME280;45412;54.472;18.464;2022-10-22T01:28:55;99373.42;;;7.64;94.09
59588;BME280;45412;54.472;18.464;2022-10-22T01:31:54;99370.23;;;7.66;94.30
59588;BME280;45412;54.472;18.464;2022-10-22T01:34:49;99371.74;;;7.72;93.86
59588;BME280;45412;54.472;18.464;2022-10-22T01:37:47;99369.45;;;7.74;93.38
59588;BME280;45412;54.472;18.464;2022-10-22T01:40:35;99372.81;;;7.74;93.35
59588;BME280;45412;54.472;18.464;2022-10-22T01:43:24;99377.15;;;7.73;93.21
59588;BME280;45412;54.472;18.464;2022-10-22T01:46:11;99375.63;;;7.72;93.17
59588;BME280;45412;54.472;18.464;2022-10-22T01:52:10;99370.27;;;7.73;93.17
59588;BME280;45412;54.472;18.464;2022-10-22T02:01:25;99363.67;;;7.80;93.00
59588;BME280;45412;54.472;18.464;2022-10-22T02:07:06;99362.86;;;7.84;92.66
59588;BME280;45412;54.472;18.464;2022-10-22T02:09:56;99366.98;;;7.83;92.63
59588;BME280;45412;54.472;18.464;2022-10-22T02:12:49;99372.25;;;7.81;92.39
59588;BME280;45412;54.472;18.464;2022-10-22T02:15:37;99375.08;;;7.77;92.38
59588;BME280;45412;54.472;18.464;2022-10-22T02:18:27;99378.52;;;7.73;92.42
59588;BME280;45412;54.472;18.464;2022-10-22T02:21:15;99372.45;;;7.70;92.74
59588;BME280;45412;54.472;18.464;2022-10-22T02:24:02;99369.98;;;7.67;92.54
59588;BME280;45412;54.472;18.464;2022-10-22T02:27:11;99365.00;;;7.63;92.87
59588;BME280;45412;54.472;18.464;2022-10-22T02:30:09;99363.19;;;7.59;93.11
59588;BME280;45412;54.472;18.464;2022-10-22T02:33:07;99363.83;;;7.55;93.31
59588;BME280;45412;54.472;18.464;2022-10-22T02:35:57;99364.38;;;7.53;93.34
59588;BME280;45412;54.472;18.464;2022-10-22T02:38:45;99368.20;;;7.49;93.30
59588;BME280;45412;54.472;18.464;2022-10-22T02:41:33;99365.64;;;7.45;93.64
59588;BME280;45412;54.472;18.464;2022-10-22T02:44:21;99362.42;;;7.44;94.19
59588;BME280;45412;54.472;18.464;2022-10-22T02:47:07;99363.92;;;7.40;94.64
59588;BME280;45412;54.472;18.464;2022-10-22T02:49:54;99362.61;;;7.39;94.20
59588;BME280;45412;54.472;18.464;2022-10-22T02:52:41;99358.98;;;7.40;94.38
59588;BME280;45412;54.472;18.464;2022-10-22T02:55:28;99358.70;;;7.41;94.77
59588;BME280;45412;54.472;18.464;2022-10-22T02:58:14;99359.45;;;7.43;94.95
59588;BME280;45412;54.472;18.464;2022-10-22T03:01:00;99358.70;;;7.44;94.84
59588;BME280;45412;54.472;18.464;2022-10-22T03:03:47;99361.69;;;7.44;95.02
59588;BME280;45412;54.472;18.464;2022-10-22T03:06:33;99360.55;;;7.43;95.12
59588;BME280;45412;54.472;18.464;2022-10-22T03:09:20;99360.33;;;7.44;95.32
59588;BME280;45412;54.472;18.464;2022-10-22T03:12:10;99356.27;;;7.43;95.17
59588;BME280;45412;54.472;18.464;2022-10-22T03:14:56;99363.52;;;7.43;96.06
59588;BME280;45412;54.472;18.464;2022-10-22T03:17:43;99370.27;;;7.42;96.19
59588;BME280;45412;54.472;18.464;2022-10-22T03:20:29;99367.48;;;7.42;96.28
59588;BME280;45412;54.472;18.464;2022-10-22T03:23:18;99367.45;;;7.42;96.44
59588;BME280;45412;54.472;18.464;2022-10-22T03:26:05;99372.29;;;7.44;96.82
59588;BME280;45412;54.472;18.464;2022-10-22T03:28:53;99372.52;;;7.45;96.74
59588;BME280;45412;54.472;18.464;2022-10-22T03:31:40;99371.84;;;7.43;97.22
59588;BME280;45412;54.472;18.464;2022-10-22T03:34:26;99371.27;;;7.43;97.02
59588;BME280;45412;54.472;18.464;2022-10-22T03:37:12;99371.11;;;7.43;97.30
59588;BME280;45412;54.472;18.464;2022-10-22T03:39:59;99372.37;;;7.43;97.49
59588;BME280;45412;54.472;18.464;2022-10-22T03:42:46;99376.85;;;7.44;97.06
59588;BME280;45412;54.472;18.464;2022-10-22T03:45:32;99378.02;;;7.47;97.10
59588;BME280;45412;54.472;18.464;2022-10-22T03:48:19;99379.12;;;7.49;97.06
59588;BME280;45412;54.472;18.464;2022-10-22T03:51:05;99382.78;;;7.50;97.30
59588;BME280;45412;54.472;18.464;2022-10-22T03:53:52;99384.39;;;7.49;97.58
59588;BME280;45412;54.472;18.464;2022-10-22T03:56:38;99385.55;;;7.48;97.54
59588;BME280;45412;54.472;18.464;2022-10-22T03:59:24;99385.73;;;7.48;97.92
59588;BME280;45412;54.472;18.464;2022-10-22T04:02:12;99386.98;;;7.48;97.72
59588;BME280;45412;54.472;18.464;2022-10-22T04:04:59;99392.30;;;7.47;98.00
59588;BME280;45412;54.472;18.464;2022-10-22T04:07:46;99396.50;;;7.48;98.13
59588;BME280;45412;54.472;18.464;2022-10-22T04:10:32;99391.85;;;7.49;98.04
59588;BME280;45412;54.472;18.464;2022-10-22T04:13:18;99393.52;;;7.50;97.79
59588;BME280;45412;54.472;18.464;2022-10-22T04:18:57;99389.96;;;7.58;97.88
59588;BME280;45412;54.472;18.464;2022-10-22T04:21:43;99392.38;;;7.63;97.59
59588;BME280;45412;54.472;18.464;2022-10-22T04:24:30;99390.19;;;7.66;97.61
59588;BME280;45412;54.472;18.464;2022-10-22T04:27:16;99390.42;;;7.68;97.20
59588;BME280;45412;54.472;18.464;2022-10-22T04:30:04;99380.42;;;7.69;97.20
59588;BME280;45412;54.472;18.464;2022-10-22T04:32:52;99378.54;;;7.71;96.90
59588;BME280;45412;54.472;18.464;2022-10-22T04:35:38;99372.89;;;7.73;97.36
59588;BME280;45412;54.472;18.464;2022-10-22T04:38:25;99365.78;;;7.76;97.01
59588;BME280;45412;54.472;18.464;2022-10-22T04:41:18;99365.73;;;7.79;96.73
59588;BME280;45412;54.472;18.464;2022-10-22T04:44:06;99363.00;;;7.80;96.59
59588;BME280;45412;54.472;18.464;2022-10-22T04:47:01;99363.21;;;7.82;96.39
59588;BME280;45412;54.472;18.464;2022-10-22T04:49:48;99365.92;;;7.86;96.37
59588;BME280;45412;54.472;18.464;2022-10-22T04:52:34;99365.09;;;7.88;96.22
59588;BME280;45412;54.472;18.464;2022-10-22T04:55:21;99361.13;;;7.91;96.42
59588;BME280;45412;54.472;18.464;2022-10-22T04:58:07;99364.77;;;7.94;96.41
59588;BME280;45412;54.472;18.464;2022-10-22T05:00:54;99368.02;;;7.93;96.27
59588;BME280;45412;54.472;18.464;2022-10-22T05:03:41;99362.23;;;7.90;96.31
59588;BME280;45412;54.472;18.464;2022-10-22T05:06:31;99368.86;;;7.91;96.38
59588;BME280;45412;54.472;18.464;2022-10-22T05:09:19;99370.72;;;7.92;96.13
59588;BME280;45412;54.472;18.464;2022-10-22T05:12:06;99369.58;;;7.93;96.10
59588;BME280;45412;54.472;18.464;2022-10-22T05:14:55;99372.14;;;7.92;96.02
59588;BME280;45412;54.472;18.464;2022-10-22T05:17:41;99366.73;;;7.93;96.44
59588;BME280;45412;54.472;18.464;2022-10-22T05:20:29;99356.82;;;7.96;96.00
59588;BME280;45412;54.472;18.464;2022-10-22T05:23:15;99348.56;;;8.00;96.06
59588;BME280;45412;54.472;18.464;2022-10-22T05:26:06;99341.52;;;8.02;96.15
59588;BME280;45412;54.472;18.464;2022-10-22T05:28:53;99341.41;;;8.03;95.81
59588;BME280;45412;54.472;18.464;2022-10-22T05:31:40;99339.40;;;8.02;95.83
59588;BME280;45412;54.472;18.464;2022-10-22T05:34:26;99340.55;;;8.01;95.73
59588;BME280;45412;54.472;18.464;2022-10-22T05:37:13;99350.36;;;8.02;95.93
59588;BME280;45412;54.472;18.464;2022-10-22T05:39:59;99340.30;;;8.04;95.86
59588;BME280;45412;54.472;18.464;2022-10-22T05:43:06;99333.55;;;8.09;95.73
59588;BME280;45412;54.472;18.464;2022-10-22T05:45:53;99333.60;;;8.13;95.35
59588;BME280;45412;54.472;18.464;2022-10-22T05:48:40;99336.73;;;8.16;94.94
59588;BME280;45412;54.472;18.464;2022-10-22T05:51:28;99350.46;;;8.21;95.32
59588;BME280;45412;54.472;18.464;2022-10-22T05:54:18;99361.94;;;8.21;95.28
59588;BME280;45412;54.472;18.464;2022-10-22T05:57:08;99377.35;;;8.21;95.18
59588;BME280;45412;54.472;18.464;2022-10-22T05:59:54;99393.55;;;8.22;95.37
59588;BME280;45412;54.472;18.464;2022-10-22T06:02:41;99399.73;;;8.24;95.32
59588;BME280;45412;54.472;18.464;2022-10-22T06:05:27;99382.24;;;8.30;95.79
59588;BME280;45412;54.472;18.464;2022-10-22T06:08:14;99371.84;;;8.42;95.55
59588;BME280;45412;54.472;18.464;2022-10-22T06:11:04;99390.79;;;8.52;95.29
59588;BME280;45412;54.472;18.464;2022-10-22T06:13:51;99390.67;;;8.56;94.93
59588;BME280;45412;54.472;18.464;2022-10-22T06:16:38;99378.35;;;8.56;94.74
59588;BME280;45412;54.472;18.464;2022-10-22T06:19:24;99382.34;;;8.56;94.82
59588;BME280;45412;54.472;18.464;2022-10-22T06:22:11;99378.97;;;8.57;94.75
59588;BME280;45412;54.472;18.464;2022-10-22T06:24:58;99374.98;;;8.60;94.89
59588;BME280;45412;54.472;18.464;2022-10-22T06:27:48;99380.99;;;8.69;94.87
59588;BME280;45412;54.472;18.464;2022-10-22T06:30:37;99390.40;;;8.79;94.70
59588;BME280;45412;54.472;18.464;2022-10-22T06:33:32;99396.36;;;8.86;94.24
59588;BME280;45412;54.472;18.464;2022-10-22T06:36:22;99397.08;;;8.93;94.28
59588;BME280;45412;54.472;18.464;2022-10-22T06:39:14;99401.01;;;8.99;93.89
59588;BME280;45412;54.472;18.464;2022-10-22T06:42:01;99401.02;;;9.05;93.90
59588;BME280;45412;54.472;18.464;2022-10-22T06:44:52;99394.91;;;9.11;93.83
59588;BME280;45412;54.472;18.464;2022-10-22T06:47:42;99393.09;;;9.16;93.36
59588;BME280;45412;54.472;18.464;2022-10-22T06:50:29;99388.36;;;9.22;93.69
59588;BME280;45412;54.472;18.464;2022-10-22T06:53:15;99381.77;;;9.25;93.38
59588;BME280;45412;54.472;18.464;2022-10-22T06:56:10;99382.11;;;9.25;93.04
59588;BME280;45412;54.472;18.464;2022-10-22T06:58:57;99388.86;;;9.27;93.16
59588;BME280;45412;54.472;18.464;2022-10-22T07:01:43;99386.61;;;9.28;92.95
59588;BME280;45412;54.472;18.464;2022-10-22T07:04:30;99386.25;;;9.34;93.17
59588;BME280;45412;54.472;18.464;2022-10-22T07:07:16;99384.41;;;9.40;93.22
59588;BME280;45412;54.472;18.464;2022-10-22T07:10:03;99383.16;;;9.44;93.10
59588;BME280;45412;54.472;18.464;2022-10-22T07:12:50;99386.36;;;9.48;92.74
59588;BME280;45412;54.472;18.464;2022-10-22T07:15:36;99390.08;;;9.50;92.49
59588;BME280;45412;54.472;18.464;2022-10-22T07:18:23;99395.46;;;9.53;92.54
59588;BME280;45412;54.472;18.464;2022-10-22T07:21:35;99395.15;;;9.60;92.80
59588;BME280;45412;54.472;18.464;2022-10-22T07:24:22;99398.08;;;9.67;93.05
59588;BME280;45412;54.472;18.464;2022-10-22T07:27:08;99401.34;;;9.79;93.07
59588;BME280;45412;54.472;18.464;2022-10-22T07:29:57;99398.04;;;9.88;93.01
59588;BME280;45412;54.472;18.464;2022-10-22T07:32:45;99406.47;;;9.95;92.62
59588;BME280;45412;54.472;18.464;2022-10-22T07:35:32;99412.56;;;9.95;91.98
59588;BME280;45412;54.472;18.464;2022-10-22T07:38:19;99414.43;;;9.94;92.27
59588;BME280;45412;54.472;18.464;2022-10-22T07:41:06;99417.88;;;9.91;92.46
59588;BME280;45412;54.472;18.464;2022-10-22T07:43:52;99415.45;;;9.88;92.56
59588;BME280;45412;54.472;18.464;2022-10-22T07:46:39;99412.41;;;9.86;92.85
59588;BME280;45412;54.472;18.464;2022-10-22T07:49:26;99410.17;;;9.89;93.24
59588;BME280;45412;54.472;18.464;2022-10-22T07:52:14;99407.26;;;9.92;92.91
59588;BME280;45412;54.472;18.464;2022-10-22T07:55:00;99409.88;;;9.93;92.79
59588;BME280;45412;54.472;18.464;2022-10-22T07:57:46;99413.83;;;9.94;93.00
59588;BME280;45412;54.472;18.464;2022-10-22T08:00:33;99410.92;;;9.95;93.08
59588;BME280;45412;54.472;18.464;2022-10-22T08:03:19;99410.01;;;10.02;93.50
59588;BME280;45412;54.472;18.464;2022-10-22T08:06:11;99407.91;;;10.08;93.31
59588;BME280;45412;54.472;18.464;2022-10-22T08:08:57;99405.42;;;10.10;93.10
59588;BME280;45412;54.472;18.464;2022-10-22T08:11:44;99410.01;;;10.14;92.95
59588;BME280;45412;54.472;18.464;2022-10-22T08:14:31;99410.41;;;10.20;93.16
59588;BME280;45412;54.472;18.464;2022-10-22T08:17:17;99403.73;;;10.25;93.11
59588;BME280;45412;54.472;18.464;2022-10-22T08:20:04;99407.64;;;10.31;93.29
59588;BME280;45412;54.472;18.464;2022-10-22T08:22:50;99406.55;;;10.38;93.20
59588;BME280;45412;54.472;18.464;2022-10-22T08:25:36;99408.79;;;10.41;92.97
59588;BME280;45412;54.472;18.464;2022-10-22T08:28:23;99401.94;;;10.44;92.94
59588;BME280;45412;54.472;18.464;2022-10-22T08:31:09;99401.20;;;10.49;92.86
59588;BME280;45412;54.472;18.464;2022-10-22T08:33:56;99401.44;;;10.54;92.77
59588;BME280;45412;54.472;18.464;2022-10-22T08:36:43;99400.21;;;10.60;92.92
59588;BME280;45412;54.472;18.464;2022-10-22T08:39:29;99396.74;;;10.69;92.88
59588;BME280;45412;54.472;18.464;2022-10-22T08:42:39;99395.97;;;10.82;92.75
59588;BME280;45412;54.472;18.464;2022-10-22T08:48:50;99392.50;;;11.05;92.57
59588;BME280;45412;54.472;18.464;2022-10-22T08:51:38;99395.05;;;11.18;92.63
59588;BME280;45412;54.472;18.464;2022-10-22T08:57:45;99396.15;;;11.37;92.03
59588;BME280;45412;54.472;18.464;2022-10-22T09:00:57;99395.89;;;11.46;91.70
59588;BME280;45412;54.472;18.464;2022-10-22T09:06:41;99390.82;;;11.47;91.02
59588;BME280;45412;54.472;18.464;2022-10-22T09:09:38;99391.43;;;11.44;90.74
59588;BME280;45412;54.472;18.464;2022-10-22T09:12:27;99395.49;;;11.43;91.14
59588;BME280;45412;54.472;18.464;2022-10-22T09:15:15;99393.73;;;11.46;91.49
59588;BME280;45412;54.472;18.464;2022-10-22T09:18:21;99394.42;;;11.56;91.26
59588;BME280;45412;54.472;18.464;2022-10-22T09:21:33;99397.58;;;11.70;90.81
59588;BME280;45412;54.472;18.464;2022-10-22T09:24:39;99397.98;;;11.79;90.16
59588;BME280;45412;54.472;18.464;2022-10-22T09:27:30;99400.30;;;11.89;89.19
59588;BME280;45412;54.472;18.464;2022-10-22T09:30:21;99406.98;;;11.91;89.11
59588;BME280;45412;54.472;18.464;2022-10-22T09:33:24;99407.63;;;11.98;88.77
59588;BME280;45412;54.472;18.464;2022-10-22T09:36:21;99413.10;;;12.04;88.65
59588;BME280;45412;54.472;18.464;2022-10-22T09:39:45;99421.04;;;11.97;87.69
59588;BME280;45412;54.472;18.464;2022-10-22T09:42:32;99423.13;;;11.76;87.82
59588;BME280;45412;54.472;18.464;2022-10-22T09:45:23;99425.55;;;11.68;88.65
59588;BME280;45412;54.472;18.464;2022-10-22T09:48:26;99430.52;;;11.68;88.95
59588;BME280;45412;54.472;18.464;2022-10-22T09:51:47;99430.10;;;11.63;88.68
59588;BME280;45412;54.472;18.464;2022-10-22T09:54:41;99429.97;;;11.58;89.28
59588;BME280;45412;54.472;18.464;2022-10-22T09:57:28;99433.92;;;11.55;89.23
59588;BME280;45412;54.472;18.464;2022-10-22T10:00:18;99433.02;;;11.44;89.33
59588;BME280;45412;54.472;18.464;2022-10-22T10:03:05;99432.27;;;11.38;89.84
59588;BME280;45412;54.472;18.464;2022-10-22T10:05:56;99430.08;;;11.33;90.23
59588;BME280;45412;54.472;18.464;2022-10-22T10:08:50;99425.00;;;11.35;90.76
59588;BME280;45412;54.472;18.464;2022-10-22T10:37:45;99408.02;;;12.15;88.77
59588;BME280;45412;54.472;18.464;2022-10-22T10:56:51;99404.99;;;12.71;86.87
59588;BME280;45412;54.472;18.464;2022-10-22T11:06:03;99402.90;;;13.05;84.73
59588;BME280;45412;54.472;18.464;2022-10-22T11:09:11;99402.52;;;13.07;84.94
59588;BME280;45412;54.472;18.464;2022-10-22T11:12:20;99400.23;;;13.05;84.48
59588;BME280;45412;54.472;18.464;2022-10-22T11:15:31;99398.77;;;13.00;84.70
59588;BME280;45412;54.472;18.464;2022-10-22T11:18:31;99397.05;;;13.00;84.72
59588;BME280;45412;54.472;18.464;2022-10-22T11:21:32;99398.39;;;12.93;84.71
59588;BME280;45412;54.472;18.464;2022-10-22T11:24:45;99406.42;;;12.91;85.30
59588;BME280;45412;54.472;18.464;2022-10-22T11:27:50;99396.81;;;12.94;85.18
59588;BME280;45412;54.472;18.464;2022-10-22T11:30:40;99395.05;;;12.92;84.78
59588;BME280;45412;54.472;18.464;2022-10-22T11:33:40;99397.51;;;12.87;85.04
59588;BME280;45412;54.472;18.464;2022-10-22T11:36:32;99399.05;;;12.86;85.60
59588;BME280;45412;54.472;18.464;2022-10-22T11:39:46;99401.02;;;12.79;85.56
59588;BME280;45412;54.472;18.464;2022-10-22T11:42:43;99404.04;;;12.73;86.13
59588;BME280;45412;54.472;18.464;2022-10-22T11:45:42;99404.50;;;12.63;86.67
59588;BME280;45412;54.472;18.464;2022-10-22T11:48:36;99401.21;;;12.55;87.28
59588;BME280;45412;54.472;18.464;2022-10-22T11:51:38;99403.00;;;12.49;88.02
59588;BME280;45412;54.472;18.464;2022-10-22T11:54:38;99399.88;;;12.48;88.37
59588;BME280;45412;54.472;18.464;2022-10-22T11:57:36;99402.67;;;12.45;88.46
59588;BME280;45412;54.472;18.464;2022-10-22T12:00:47;99404.74;;;12.42;88.78
59588;BME280;45412;54.472;18.464;2022-10-22T12:06:25;99409.77;;;12.34;89.43
59588;BME280;45412;54.472;18.464;2022-10-22T12:09:12;99411.88;;;12.29;89.68
59588;BME280;45412;54.472;18.464;2022-10-22T12:12:11;99411.95;;;12.24;90.16
59588;BME280;45412;54.472;18.464;2022-10-22T12:14:59;99410.97;;;12.16;90.62
59588;BME280;45412;54.472;18.464;2022-10-22T12:17:46;99408.19;;;12.07;90.75
59588;BME280;45412;54.472;18.464;2022-10-22T12:20:32;99409.86;;;12.03;91.32
59588;BME280;45412;54.472;18.464;2022-10-22T12:23:23;99411.93;;;12.00;91.86
59588;BME280;45412;54.472;18.464;2022-10-22T12:26:30;99414.11;;;11.97;92.07
59588;BME280;45412;54.472;18.464;2022-10-22T12:29:21;99418.05;;;11.93;92.56
59588;BME280;45412;54.472;18.464;2022-10-22T12:32:13;99414.00;;;11.92;92.90
59588;BME280;45412;54.472;18.464;2022-10-22T12:35:05;99414.58;;;11.90;93.25
59588;BME280;45412;54.472;18.464;2022-10-22T12:38:00;99411.96;;;11.91;93.38
59588;BME280;45412;54.472;18.464;2022-10-22T12:40:50;99417.13;;;11.93;93.75
59588;BME280;45412;54.472;18.464;2022-10-22T12:43:38;99415.44;;;11.92;93.91
59588;BME280;45412;54.472;18.464;2022-10-22T12:46:27;99416.77;;;11.91;93.99
59588;BME280;45412;54.472;18.464;2022-10-22T12:49:24;99414.38;;;11.90;94.51
59588;BME280;45412;54.472;18.464;2022-10-22T12:52:20;99418.02;;;11.87;94.68
59588;BME280;45412;54.472;18.464;2022-10-22T12:55:08;99415.13;;;11.86;95.03
59588;BME280;45412;54.472;18.464;2022-10-22T12:57:55;99420.41;;;11.86;95.27
59588;BME280;45412;54.472;18.464;2022-10-22T13:00:45;99420.21;;;11.88;95.41
59588;BME280;45412;54.472;18.464;2022-10-22T13:03:36;99416.45;;;11.91;95.51
59588;BME280;45412;54.472;18.464;2022-10-22T13:06:27;99417.66;;;11.93;95.52
59588;BME280;45412;54.472;18.464;2022-10-22T13:09:22;99422.09;;;11.96;95.84
59588;BME280;45412;54.472;18.464;2022-10-22T13:12:13;99418.40;;;11.97;95.78
59588;BME280;45412;54.472;18.464;2022-10-22T13:18:22;99422.02;;;11.98;96.04
59588;BME280;45412;54.472;18.464;2022-10-22T13:21:36;99420.60;;;12.00;96.26
59588;BME280;45412;54.472;18.464;2022-10-22T13:24:23;99417.66;;;11.99;96.69
59588;BME280;45412;54.472;18.464;2022-10-22T13:27:12;99415.73;;;11.97;97.02
59588;BME280;45412;54.472;18.464;2022-10-22T13:30:02;99417.05;;;11.94;97.12
59588;BME280;45412;54.472;18.464;2022-10-22T13:33:18;99416.44;;;11.93;97.41
59588;BME280;45412;54.472;18.464;2022-10-22T13:36:12;99417.98;;;11.91;97.88
59588;BME280;45412;54.472;18.464;2022-10-22T13:38:59;99417.24;;;11.92;98.02
59588;BME280;45412;54.472;18.464;2022-10-22T13:41:45;99419.33;;;11.95;98.15
59588;BME280;45412;54.472;18.464;2022-10-22T13:44:32;99417.70;;;11.95;98.43
59588;BME280;45412;54.472;18.464;2022-10-22T13:47:28;99417.36;;;11.97;98.42
59588;BME280;45412;54.472;18.464;2022-10-22T13:50:18;99410.14;;;12.02;98.53
59588;BME280;45412;54.472;18.464;2022-10-22T13:53:09;99406.61;;;12.07;98.81
59588;BME280;45412;54.472;18.464;2022-10-22T13:56:04;99407.02;;;12.10;98.77
59588;BME280;45412;54.472;18.464;2022-10-22T13:58:51;99408.00;;;12.11;98.67
59588;BME280;45412;54.472;18.464;2022-10-22T14:01:38;99407.60;;;12.14;98.77
59588;BME280;45412;54.472;18.464;2022-10-22T14:04:24;99409.48;;;12.14;98.95
59588;BME280;45412;54.472;18.464;2022-10-22T14:07:15;99404.29;;;12.15;99.08
59588;BME280;45412;54.472;18.464;2022-10-22T14:10:13;99407.20;;;12.16;99.34
59588;BME280;45412;54.472;18.464;2022-10-22T14:13:00;99410.42;;;12.14;99.60
59588;BME280;45412;54.472;18.464;2022-10-22T14:15:48;99412.45;;;12.11;99.82
59588;BME280;45412;54.472;18.464;2022-10-22T14:18:35;99408.39;;;12.11;99.96
59588;BME280;45412;54.472;18.464;2022-10-22T14:21:22;99409.11;;;12.09;100.00
59588;BME280;45412;54.472;18.464;2022-10-22T14:24:09;99410.60;;;12.08;100.00
59588;BME280;45412;54.472;18.464;2022-10-22T14:26:58;99405.01;;;12.09;100.00
59588;BME280;45412;54.472;18.464;2022-10-22T14:29:45;99413.65;;;12.08;100.00
59588;BME280;45412;54.472;18.464;2022-10-22T14:32:32;99412.60;;;12.06;100.00
59588;BME280;45412;54.472;18.464;2022-10-22T14:35:21;99415.32;;;12.07;100.00
59588;BME280;45412;54.472;18.464;2022-10-22T14:38:08;99417.89;;;12.06;100.00
59588;BME280;45412;54.472;18.464;2022-10-22T14:40:55;99419.37;;;12.04;100.00
59588;BME280;45412;54.472;18.464;2022-10-22T14:43:42;99423.88;;;12.03;100.00
59588;BME280;45412;54.472;18.464;2022-10-22T14:46:29;99423.52;;;12.01;100.00
59588;BME280;45412;54.472;18.464;2022-10-22T14:49:15;99419.65;;;12.01;100.00
59588;BME280;45412;54.472;18.464;2022-10-22T14:52:01;99422.49;;;12.01;100.00
59588;BME280;45412;54.472;18.464;2022-10-22T14:54:48;99423.95;;;12.01;100.00
59588;BME280;45412;54.472;18.464;2022-10-22T14:57:34;99424.49;;;12.02;100.00
59588;BME280;45412;54.472;18.464;2022-10-22T15:00:21;99422.74;;;12.00;100.00
59588;BME280;45412;54.472;18.464;2022-10-22T15:03:08;99427.91;;;12.00;100.00
59588;BME280;45412;54.472;18.464;2022-10-22T15:05:55;99430.29;;;12.01;100.00
59588;BME280;45412;54.472;18.464;2022-10-22T15:08:43;99432.70;;;12.00;100.00
59588;BME280;45412;54.472;18.464;2022-10-22T15:11:29;99430.09;;;11.98;100.00
59588;BME280;45412;54.472;18.464;2022-10-22T15:14:18;99428.12;;;11.98;100.00
59588;BME280;45412;54.472;18.464;2022-10-22T15:17:08;99433.05;;;12.00;100.00
59588;BME280;45412;54.472;18.464;2022-10-22T15:19:54;99436.42;;;12.00;100.00
59588;BME280;45412;54.472;18.464;2022-10-22T15:22:41;99434.61;;;12.00;100.00
59588;BME280;45412;54.472;18.464;2022-10-22T15:25:29;99437.31;;;12.02;100.00
59588;BME280;45412;54.472;18.464;2022-10-22T15:28:15;99444.69;;;12.03;100.00
59588;BME280;45412;54.472;18.464;2022-10-22T15:31:02;99446.03;;;12.04;100.00
59588;BME280;45412;54.472;18.464;2022-10-22T15:33:48;99444.66;;;12.03;100.00
59588;BME280;45412;54.472;18.464;2022-10-22T15:36:35;99444.40;;;12.04;100.00
59588;BME280;45412;54.472;18.464;2022-10-22T15:39:22;99448.42;;;12.05;100.00
59588;BME280;45412;54.472;18.464;2022-10-22T15:42:09;99446.63;;;12.05;100.00
59588;BME280;45412;54.472;18.464;2022-10-22T15:44:57;99451.66;;;12.03;100.00
59588;BME280;45412;54.472;18.464;2022-10-22T15:47:46;99451.95;;;12.02;100.00
59588;BME280;45412;54.472;18.464;2022-10-22T15:50:37;99450.48;;;12.00;100.00
59588;BME280;45412;54.472;18.464;2022-10-22T15:53:24;99452.77;;;12.00;100.00
59588;BME280;45412;54.472;18.464;2022-10-22T15:56:11;99455.90;;;12.01;100.00
59588;BME280;45412;54.472;18.464;2022-10-22T15:59:00;99457.98;;;12.00;100.00
59588;BME280;45412;54.472;18.464;2022-10-22T16:01:50;99462.48;;;11.99;100.00
59588;BME280;45412;54.472;18.464;2022-10-22T16:04:38;99465.89;;;11.99;100.00
59588;BME280;45412;54.472;18.464;2022-10-22T16:07:25;99468.07;;;11.98;100.00
59588;BME280;45412;54.472;18.464;2022-10-22T16:10:12;99471.84;;;11.98;100.00
59588;BME280;45412;54.472;18.464;2022-10-22T16:12:58;99477.88;;;11.96;100.00
59588;BME280;45412;54.472;18.464;2022-10-22T16:15:45;99477.05;;;11.95;100.00
59588;BME280;45412;54.472;18.464;2022-10-22T16:18:31;99484.73;;;11.97;100.00
59588;BME280;45412;54.472;18.464;2022-10-22T16:21:20;99492.65;;;11.98;100.00
59588;BME280;45412;54.472;18.464;2022-10-22T16:24:07;99494.91;;;11.98;100.00
59588;BME280;45412;54.472;18.464;2022-10-22T16:26:54;99497.05;;;11.98;100.00
59588;BME280;45412;54.472;18.464;2022-10-22T16:29:40;99497.64;;;12.00;100.00